createdAt,value
2022-08-19T00:01:28.556Z,8.23
2022-08-19T00:04:00.075Z,7.25
2022-08-19T00:06:28.248Z,7.80
2022-08-19T00:08:55.069Z,6.45
2022-08-19T00:11:25.669Z,8.65
2022-08-19T00:13:53.336Z,8.27
2022-08-19T00:16:20.549Z,7.38
2022-08-19T00:18:54.207Z,8.00
2022-08-19T00:21:20.857Z,7.65
2022-08-19T00:23:47.389Z,7.60
2022-08-19T00:26:14.256Z,8.23
2022-08-19T00:28:40.950Z,8.40
2022-08-19T00:31:09.497Z,9.32
2022-08-19T00:33:36.194Z,9.18
2022-08-19T00:36:05.436Z,7.40
2022-08-19T00:38:37.627Z,9.70
2022-08-19T00:41:06.121Z,8.48
2022-08-19T00:43:33.229Z,9.93
2022-08-19T00:46:00.131Z,8.35
2022-08-19T00:48:26.692Z,6.97
2022-08-19T00:50:55.210Z,7.22
2022-08-19T00:53:29.511Z,8.27
2022-08-19T00:55:59.033Z,9.57
2022-08-19T00:58:29.876Z,8.23
2022-08-19T01:00:56.557Z,7.97
2022-08-19T01:03:23.688Z,8.20
2022-08-19T01:05:52.826Z,10.52
2022-08-19T01:08:20.945Z,8.88
2022-08-19T01:10:57.355Z,9.02
2022-08-19T01:13:28.763Z,7.53
2022-08-19T01:16:12.257Z,8.38
2022-08-19T01:18:41.991Z,12.10
2022-08-19T01:21:37.412Z,10.10
2022-08-19T01:24:04.606Z,10.30
2022-08-19T01:26:31.476Z,8.43
2022-08-19T01:29:01.889Z,9.52
2022-08-19T01:31:33.391Z,7.53
2022-08-19T01:34:02.142Z,9.88
2022-08-19T01:36:31.473Z,11.80
2022-08-19T01:38:59.877Z,8.52
2022-08-19T01:41:27.141Z,9.10
2022-08-19T01:44:10.297Z,9.20
2022-08-19T01:46:41.906Z,8.50
2022-08-19T01:49:09.122Z,10.15
2022-08-19T01:51:38.492Z,10.13
2022-08-19T01:54:10.253Z,9.48
2022-08-19T01:56:37.432Z,10.10
2022-08-19T01:59:09.382Z,9.55
2022-08-19T02:01:36.164Z,12.43
2022-08-19T02:04:03.419Z,9.18
2022-08-19T02:06:30.687Z,8.95
2022-08-19T02:08:57.927Z,13.43
2022-08-19T02:11:27.474Z,11.60
2022-08-19T02:13:56.957Z,9.77
2022-08-19T02:16:23.773Z,11.05
2022-08-19T02:18:51.203Z,11.45
2022-08-19T02:21:20.708Z,11.50
2022-08-19T02:23:48.162Z,10.05
2022-08-19T02:26:15.179Z,11.18
2022-08-19T02:28:42.533Z,10.80
2022-08-19T02:31:11.783Z,11.27
2022-08-19T02:33:38.625Z,11.88
2022-08-19T02:36:06.561Z,12.40
2022-08-19T02:38:33.389Z,11.70
2022-08-19T02:41:04.988Z,14.23
2022-08-19T02:43:34.484Z,14.60
2022-08-19T02:46:01.933Z,12.25
2022-08-19T02:48:28.538Z,14.40
2022-08-19T02:50:57.945Z,13.18
2022-08-19T02:53:27.121Z,11.95
2022-08-19T02:55:54.209Z,15.73
2022-08-19T02:58:22.534Z,14.02
2022-08-19T03:00:53.142Z,14.65
2022-08-19T03:03:20.786Z,14.93
2022-08-19T03:05:55.657Z,13.77
2022-08-19T03:08:25.032Z,14.50
2022-08-19T03:10:52.995Z,15.27
2022-08-19T03:13:19.552Z,11.25
2022-08-19T03:15:48.548Z,13.35
2022-08-19T03:18:16.064Z,14.75
2022-08-19T03:20:46.733Z,15.65
2022-08-19T03:23:13.672Z,11.93
2022-08-19T03:25:44.102Z,13.43
2022-08-19T03:28:12.875Z,10.88
2022-08-19T03:30:41.810Z,15.00
2022-08-19T03:33:18.047Z,16.23
2022-08-19T03:35:46.012Z,13.35
2022-08-19T03:38:12.528Z,15.02
2022-08-19T03:40:39.130Z,15.00
2022-08-19T03:43:06.940Z,12.93
2022-08-19T03:45:33.537Z,12.73
2022-08-19T03:48:00.069Z,16.85
2022-08-19T03:50:26.606Z,13.32
2022-08-19T03:52:53.432Z,18.50
2022-08-19T03:55:20.401Z,17.08
2022-08-19T03:57:48.581Z,11.35
2022-08-19T04:00:15.866Z,12.48
2022-08-19T04:02:42.972Z,15.50
2022-08-19T04:05:24.802Z,17.52
2022-08-19T04:07:54.903Z,13.38
2022-08-19T04:10:21.511Z,12.27
2022-08-19T04:12:48.049Z,16.15
2022-08-19T04:15:16.293Z,21.65
2022-08-19T04:17:42.969Z,18.45
2022-08-19T04:20:09.643Z,17.23
2022-08-19T04:22:36.181Z,17.88
2022-08-19T04:25:03.284Z,20.48
2022-08-19T04:27:30.205Z,24.92
2022-08-19T04:29:56.751Z,12.00
2022-08-19T04:32:23.652Z,24.23
2022-08-19T04:35:01.512Z,25.23
2022-08-19T04:37:36.884Z,26.92
2022-08-19T04:40:24.504Z,24.02
2022-08-19T04:42:51.125Z,24.95
2022-08-19T04:45:17.703Z,14.57
2022-08-19T04:47:49.382Z,22.45
2022-08-19T04:50:29.663Z,25.33
2022-08-19T04:52:56.732Z,26.05
2022-08-19T04:55:26.462Z,24.20
2022-08-19T04:57:53.818Z,23.40
2022-08-19T05:00:20.518Z,17.48
2022-08-19T05:02:47.116Z,14.77
2022-08-19T05:05:14.162Z,24.00
2022-08-19T05:07:42.009Z,22.33
2022-08-19T05:10:08.946Z,18.67
2022-08-19T05:12:35.621Z,18.92
2022-08-19T05:15:04.137Z,20.20
2022-08-19T05:17:36.040Z,15.32
2022-08-19T05:20:27.511Z,20.35
2022-08-19T05:22:54.379Z,22.63
2022-08-19T05:25:22.376Z,17.40
2022-08-19T05:27:49.269Z,24.92
2022-08-19T05:30:16.625Z,21.75
2022-08-19T05:32:43.587Z,16.30
2022-08-19T05:35:10.672Z,25.33
2022-08-19T05:37:37.592Z,14.82
2022-08-19T05:40:05.037Z,21.27
2022-08-19T05:42:31.973Z,20.50
2022-08-19T05:44:58.518Z,16.63
2022-08-19T05:47:25.069Z,23.83
2022-08-19T05:49:51.970Z,31.45
2022-08-19T05:52:25.563Z,19.60
2022-08-19T05:54:55.709Z,20.50
2022-08-19T05:57:23.938Z,14.75
2022-08-19T05:59:53.276Z,32.10
2022-08-19T06:02:28.420Z,19.40
2022-08-19T06:04:55.195Z,19.88
2022-08-19T06:07:21.831Z,28.70
2022-08-19T06:09:59.101Z,16.33
2022-08-19T06:12:32.463Z,29.25
2022-08-19T06:17:30.961Z,18.92
2022-08-19T06:19:59.594Z,26.90
2022-08-19T06:22:27.356Z,15.20
2022-08-19T06:24:54.879Z,22.20
2022-08-19T06:27:22.363Z,14.93
2022-08-19T06:29:49.147Z,17.42
2022-08-19T06:32:17.746Z,22.05
2022-08-19T06:34:44.735Z,23.17
2022-08-19T06:37:12.007Z,20.88
2022-08-19T06:39:41.306Z,15.50
2022-08-19T06:42:12.300Z,29.75
2022-08-19T06:44:42.367Z,16.88
2022-08-19T06:47:14.642Z,26.98
2022-08-19T06:49:49.653Z,17.25
2022-08-19T06:52:17.056Z,24.38
2022-08-19T06:54:55.713Z,26.17
2022-08-19T06:57:23.614Z,22.85
2022-08-19T06:59:50.457Z,15.82
2022-08-19T07:04:48.576Z,33.33
2022-08-19T07:07:21.747Z,14.52
2022-08-19T07:09:55.348Z,18.15
2022-08-19T07:12:28.095Z,20.67
2022-08-19T07:14:56.278Z,23.73
2022-08-19T07:17:24.507Z,22.77
2022-08-19T07:19:51.511Z,25.08
2022-08-19T07:22:23.414Z,24.17
2022-08-19T07:24:51.747Z,19.23
2022-08-19T07:27:24.389Z,16.13
2022-08-19T07:29:55.936Z,28.88
2022-08-19T07:32:26.769Z,25.25
2022-08-19T07:34:53.641Z,21.63
2022-08-19T07:37:20.202Z,23.83
2022-08-19T07:39:46.846Z,25.63
2022-08-19T07:42:14.592Z,26.58
2022-08-19T07:44:42.186Z,19.88
2022-08-19T07:47:47.845Z,22.27
2022-08-19T07:50:05.382Z,25.02
2022-08-19T07:52:37.138Z,22.00
2022-08-19T07:55:05.670Z,28.77
2022-08-19T07:57:32.398Z,23.95
2022-08-19T07:59:59.821Z,25.05
2022-08-19T08:02:26.461Z,27.15
2022-08-19T08:05:11.833Z,25.08
2022-08-19T08:07:56.602Z,28.20
2022-08-19T08:10:24.455Z,31.92
2022-08-19T08:13:09.253Z,28.55
2022-08-19T08:15:42.566Z,29.65
2022-08-19T08:18:11.364Z,21.48
2022-08-19T08:20:38.228Z,35.25
2022-08-19T08:23:23.096Z,39.70
2022-08-19T08:25:50.417Z,41.50
2022-08-19T08:28:18.200Z,39.47
2022-08-19T08:30:48.327Z,34.88
2022-08-19T08:33:33.245Z,30.52
2022-08-19T08:36:09.189Z,39.08
2022-08-19T08:38:39.870Z,43.22
2022-08-19T08:43:58.061Z,39.15
2022-08-19T08:46:33.924Z,42.65
2022-08-19T08:49:14.733Z,36.20
2022-08-19T08:51:48.312Z,31.70
2022-08-19T08:54:28.160Z,28.70
2022-08-19T08:56:55.331Z,30.17
2022-08-19T08:59:33.302Z,33.30
2022-08-19T09:02:01.057Z,35.92
2022-08-19T09:04:28.339Z,30.33
2022-08-19T09:07:34.514Z,36.72
2022-08-19T09:10:10.045Z,27.15
2022-08-19T09:12:44.921Z,24.77
2022-08-19T09:15:15.615Z,28.17
2022-08-19T09:17:42.247Z,23.85
2022-08-19T09:20:11.926Z,17.60
2022-08-19T09:22:44.736Z,17.90
2022-08-19T09:25:15.850Z,24.35
2022-08-19T09:27:43.854Z,25.95
2022-08-19T09:30:15.793Z,19.80
2022-08-19T09:32:43.862Z,15.90
2022-08-19T09:35:11.090Z,19.55
2022-08-19T09:37:39.215Z,16.90
2022-08-19T09:40:08.139Z,17.20
2022-08-19T09:42:35.882Z,21.25
2022-08-19T09:45:05.213Z,18.48
2022-08-19T09:47:39.000Z,18.90
2022-08-19T09:50:09.597Z,19.67
2022-08-19T09:52:37.653Z,22.13
2022-08-19T09:55:10.020Z,13.77
2022-08-19T09:57:37.439Z,15.93
2022-08-19T10:00:07.043Z,17.77
2022-08-19T10:02:34.575Z,24.50
2022-08-19T10:05:26.723Z,20.58
2022-08-19T10:07:53.945Z,17.55
2022-08-19T10:10:23.727Z,17.13
2022-08-19T10:12:51.262Z,11.43
2022-08-19T10:19:05.938Z,17.92
2022-08-19T10:21:33.853Z,14.85
2022-08-19T10:24:04.966Z,20.52
2022-08-19T10:29:00.497Z,12.38
2022-08-19T10:31:57.219Z,13.13
2022-08-19T10:34:27.133Z,15.77
2022-08-19T10:37:00.559Z,14.30
2022-08-19T10:39:30.500Z,11.25
2022-08-19T10:41:57.822Z,11.68
2022-08-19T10:44:25.298Z,13.15
2022-08-19T10:46:59.934Z,11.52
2022-08-19T10:49:26.768Z,14.75
2022-08-19T10:52:19.407Z,12.07
2022-08-19T10:55:08.536Z,11.15
2022-08-19T10:57:59.388Z,14.27
2022-08-19T11:00:24.212Z,14.68
2022-08-19T11:02:53.700Z,15.18
2022-08-19T11:05:20.481Z,15.02
2022-08-19T11:07:51.274Z,13.60
2022-08-19T11:10:21.933Z,12.93
2022-08-19T11:12:49.236Z,13.88
2022-08-19T11:15:16.461Z,12.90
2022-08-19T11:17:44.739Z,13.10
2022-08-19T11:20:13.152Z,10.88
2022-08-19T11:22:41.837Z,9.88
2022-08-19T11:25:11.361Z,10.13
2022-08-19T11:27:45.485Z,13.27
2022-08-19T11:30:13.869Z,10.02
2022-08-19T11:32:47.123Z,11.57
2022-08-19T11:35:16.796Z,10.88
2022-08-19T11:37:43.309Z,9.30
2022-08-19T11:40:10.668Z,12.73
2022-08-19T11:42:56.446Z,12.90
2022-08-19T11:45:24.960Z,8.88
2022-08-19T11:47:51.568Z,7.40
2022-08-19T11:50:18.870Z,9.55
2022-08-19T11:52:46.505Z,8.82
2022-08-19T11:55:14.700Z,9.90
2022-08-19T11:57:42.157Z,11.68
2022-08-19T12:00:10.452Z,11.57
2022-08-19T12:02:37.085Z,11.20
2022-08-19T12:05:04.981Z,9.43
2022-08-19T12:07:35.331Z,10.20
2022-08-19T12:10:02.076Z,10.23
2022-08-19T12:12:30.312Z,11.80
2022-08-19T12:15:00.650Z,9.05
2022-08-19T12:17:27.983Z,11.68
2022-08-19T12:19:55.147Z,8.63
2022-08-19T12:22:22.287Z,8.38
2022-08-19T12:24:51.645Z,8.65
2022-08-19T12:27:32.271Z,9.30
2022-08-19T12:30:08.806Z,10.50
2022-08-19T12:32:35.470Z,11.88
2022-08-19T12:35:02.233Z,8.55
2022-08-19T12:37:28.843Z,7.25
2022-08-19T12:39:58.435Z,7.22
2022-08-19T12:42:25.357Z,8.20
2022-08-19T12:44:52.709Z,9.88
2022-08-19T12:47:19.665Z,7.18
2022-08-19T12:49:53.261Z,8.35
2022-08-19T12:52:23.807Z,10.15
2022-08-19T12:54:54.273Z,7.32
2022-08-19T12:57:22.189Z,7.18
2022-08-19T12:59:54.556Z,6.88
2022-08-19T13:02:23.384Z,7.45
2022-08-19T13:04:50.070Z,6.05
2022-08-19T13:07:16.625Z,9.60
2022-08-19T13:09:43.522Z,7.07
2022-08-19T13:12:13.894Z,7.97
2022-08-19T13:14:41.292Z,6.68
2022-08-19T13:17:09.587Z,6.72
2022-08-19T13:19:38.051Z,5.95
2022-08-19T13:22:04.769Z,6.85
2022-08-19T13:24:42.862Z,6.05
2022-08-19T13:27:12.074Z,4.93
2022-08-19T13:30:00.078Z,6.95
2022-08-19T13:32:45.275Z,5.30
2022-08-19T13:35:16.687Z,5.70
2022-08-19T13:37:43.999Z,6.53
2022-08-19T13:40:19.391Z,7.25
2022-08-19T13:42:48.510Z,5.95
2022-08-19T13:45:20.498Z,7.90
2022-08-19T13:47:48.812Z,7.53
2022-08-19T13:50:19.150Z,5.25
2022-08-19T13:52:46.723Z,8.13
2022-08-19T13:55:13.338Z,5.70
2022-08-19T13:57:39.981Z,8.15
2022-08-19T14:00:14.944Z,5.45
2022-08-19T14:02:41.984Z,7.15
2022-08-19T14:05:12.060Z,5.43
2022-08-19T14:07:39.558Z,6.30
2022-08-19T14:10:09.623Z,5.75
2022-08-19T14:12:37.118Z,6.75
2022-08-19T14:15:05.334Z,7.90
2022-08-19T14:17:32.026Z,4.50
2022-08-19T14:20:10.751Z,4.22
2022-08-19T14:22:41.102Z,6.93
2022-08-19T14:25:11.337Z,4.97
2022-08-19T14:27:39.657Z,5.27
2022-08-19T14:30:08.594Z,8.48
2022-08-19T14:32:35.467Z,5.18
2022-08-19T14:35:08.256Z,7.05
2022-08-19T14:37:45.756Z,6.43
2022-08-19T14:40:15.200Z,4.20
2022-08-19T14:42:42.786Z,6.10
2022-08-19T14:45:11.310Z,4.15
2022-08-19T15:00:15.768Z,5.15
2022-08-19T15:02:42.708Z,6.47
2022-08-19T15:05:09.828Z,4.25
2022-08-19T15:07:37.109Z,5.88
2022-08-19T15:10:04.689Z,4.68
2022-08-19T15:12:31.430Z,7.07
2022-08-19T15:14:57.963Z,6.32
2022-08-19T15:17:45.533Z,6.85
2022-08-19T15:20:14.680Z,5.30
2022-08-19T15:22:42.628Z,4.28
2022-08-19T15:25:11.579Z,4.78
2022-08-19T15:27:40.616Z,5.15
2022-08-19T15:30:11.450Z,7.03
2022-08-19T15:32:38.804Z,4.57
2022-08-19T15:35:06.934Z,4.55
2022-08-19T15:37:34.489Z,6.70
2022-08-19T15:40:09.459Z,6.35
2022-08-19T15:42:37.914Z,6.50
2022-08-19T15:45:08.186Z,4.75
2022-08-19T15:47:35.744Z,5.10
2022-08-19T15:50:18.117Z,4.82
2022-08-19T15:52:53.623Z,4.28
2022-08-19T15:55:33.628Z,7.80
2022-08-19T15:58:28.345Z,4.25
2022-08-19T16:01:20.709Z,3.60
2022-08-19T16:04:14.555Z,3.80
2022-08-19T16:06:53.320Z,3.30
2022-08-19T16:09:27.282Z,4.90
2022-08-19T16:12:01.725Z,8.73
2022-08-19T16:14:30.340Z,3.30
2022-08-19T16:16:57.118Z,3.53
2022-08-19T16:19:24.422Z,3.38
2022-08-19T16:21:55.067Z,4.07
2022-08-19T16:24:25.889Z,4.43
2022-08-19T16:26:53.008Z,4.90
2022-08-19T16:29:27.671Z,4.63
2022-08-19T16:32:05.686Z,4.05
2022-08-19T16:34:33.831Z,7.00
2022-08-19T16:37:01.302Z,5.72
2022-08-19T16:39:27.934Z,5.05
2022-08-19T16:41:54.556Z,4.43
2022-08-19T16:44:21.355Z,3.67
2022-08-19T16:46:52.577Z,4.55
2022-08-19T16:49:53.298Z,3.70
2022-08-19T16:52:14.962Z,4.55
2022-08-19T16:54:43.660Z,4.05
2022-08-19T16:57:11.726Z,3.88
2022-08-19T16:59:48.238Z,6.05
2022-08-19T17:02:19.292Z,3.35
2022-08-19T17:04:57.284Z,5.60
2022-08-19T17:07:29.343Z,3.75
2022-08-19T17:10:00.024Z,3.70
2022-08-19T17:12:31.905Z,4.65
2022-08-19T17:15:01.122Z,3.10
2022-08-19T17:17:29.305Z,5.97
2022-08-19T17:19:56.624Z,4.78
2022-08-19T17:22:23.190Z,4.80
2022-08-19T17:24:49.762Z,4.20
2022-08-19T17:27:16.411Z,2.75
2022-08-19T17:29:46.907Z,4.68
2022-08-19T17:32:15.261Z,4.28
2022-08-19T17:34:41.903Z,3.72
2022-08-19T17:37:08.574Z,6.13
2022-08-19T17:39:37.175Z,3.70
2022-08-19T17:44:36.478Z,5.20
2022-08-19T17:47:04.371Z,4.15
2022-08-19T17:49:33.327Z,7.35
2022-08-19T17:52:00.341Z,5.82
2022-08-19T17:54:28.679Z,2.70
2022-08-19T17:57:01.223Z,3.65
2022-08-19T17:59:30.153Z,3.38
2022-08-19T18:01:57.576Z,4.70
2022-08-19T18:04:25.652Z,3.40
2022-08-19T18:06:54.740Z,4.43
2022-08-19T18:09:41.249Z,3.25
2022-08-19T18:12:10.617Z,3.88
2022-08-19T18:14:39.148Z,3.58
2022-08-19T18:17:11.392Z,5.78
2022-08-19T18:19:41.873Z,5.70
2022-08-19T18:22:10.781Z,6.47
2022-08-19T18:24:42.085Z,3.70
2022-08-19T18:27:09.880Z,5.18
2022-08-19T18:29:38.264Z,3.20
2022-08-19T18:32:06.489Z,4.95
2022-08-19T18:34:36.197Z,3.58
2022-08-19T18:37:02.759Z,5.88
2022-08-19T18:39:48.475Z,3.67
2022-08-19T18:42:34.224Z,4.28
2022-08-19T18:45:19.500Z,3.35
2022-08-19T18:48:04.372Z,3.50
2022-08-19T18:50:30.981Z,3.65
2022-08-19T18:56:44.914Z,3.05
2022-08-19T18:59:15.202Z,2.67
2022-08-19T19:01:48.197Z,2.72
2022-08-19T19:04:14.774Z,2.75
2022-08-19T19:06:42.528Z,3.90
2022-08-19T19:09:12.024Z,3.80
2022-08-19T19:12:02.159Z,2.65
2022-08-19T19:14:48.729Z,2.83
2022-08-19T19:17:16.537Z,3.50
2022-08-19T19:19:44.180Z,3.08
2022-08-19T19:22:13.868Z,6.55
2022-08-19T19:24:44.126Z,5.43
2022-08-19T19:27:12.955Z,3.10
2022-08-19T19:29:40.770Z,3.25
2022-08-19T19:32:10.030Z,3.45
2022-08-19T19:34:40.090Z,3.50
2022-08-19T19:37:06.761Z,3.42
2022-08-19T19:39:45.705Z,4.28
2022-08-19T19:42:19.978Z,3.78
2022-08-19T19:44:50.259Z,3.22
2022-08-19T19:47:18.990Z,4.70
2022-08-19T19:50:12.790Z,5.13
2022-08-19T19:52:33.794Z,4.38
2022-08-19T19:55:01.320Z,4.35
2022-08-19T19:57:29.286Z,4.20
2022-08-19T19:59:56.474Z,4.38
2022-08-19T20:02:25.099Z,3.03
2022-08-19T20:04:52.683Z,3.67
2022-08-19T20:07:39.407Z,3.13
2022-08-19T20:10:06.265Z,3.35
2022-08-19T20:12:32.829Z,2.95
2022-08-19T20:14:59.412Z,3.33
2022-08-19T20:17:26.054Z,3.22
2022-08-19T20:19:53.489Z,4.38
2022-08-19T20:22:20.083Z,2.40
2022-08-19T20:24:48.363Z,2.13
2022-08-19T20:27:14.921Z,7.50
2022-08-19T20:29:44.440Z,2.08
2022-08-19T20:32:12.614Z,1.48
2022-08-19T20:34:40.341Z,3.92
2022-08-19T20:37:09.508Z,1.73
2022-08-19T20:39:36.986Z,1.80
2022-08-19T20:42:03.808Z,2.00
2022-08-19T20:44:30.356Z,1.20
2022-08-19T20:47:00.525Z,2.25
2022-08-19T20:49:29.641Z,2.00
2022-08-19T20:51:56.999Z,1.80
2022-08-19T20:54:24.234Z,1.73
2022-08-19T20:56:51.638Z,2.20
2022-08-19T20:59:20.011Z,1.88
2022-08-19T21:01:51.567Z,2.05
2022-08-19T21:04:19.594Z,1.70
2022-08-19T21:06:46.272Z,1.80
2022-08-19T21:09:13.686Z,2.72
2022-08-19T21:11:40.993Z,2.00
2022-08-19T21:14:07.895Z,2.05
2022-08-19T21:16:34.611Z,2.50
2022-08-19T21:19:01.683Z,2.13
2022-08-19T21:21:28.366Z,2.00
2022-08-19T21:23:54.996Z,2.40
2022-08-19T21:26:21.630Z,1.95
2022-08-19T21:28:48.200Z,1.80
2022-08-19T21:31:15.802Z,3.88
2022-08-19T21:33:42.482Z,2.80
2022-08-19T21:36:09.609Z,2.22
2022-08-19T21:38:37.358Z,2.20
2022-08-19T21:41:06.146Z,1.90
2022-08-19T21:43:34.728Z,4.93
2022-08-19T21:46:01.716Z,2.10
2022-08-19T21:48:28.384Z,3.05
2022-08-19T21:50:55.012Z,1.48
2022-08-19T21:53:22.968Z,2.67
2022-08-19T21:55:53.392Z,5.82
2022-08-19T21:58:28.233Z,2.20
2022-08-19T22:00:57.551Z,5.55
2022-08-19T22:03:25.643Z,5.10
2022-08-19T22:05:52.438Z,4.15
2022-08-19T22:08:18.979Z,5.13
2022-08-19T22:10:46.529Z,4.75
2022-08-19T22:13:14.519Z,5.18
2022-08-19T22:15:42.404Z,3.67
2022-08-19T22:18:09.211Z,5.03
2022-08-19T22:20:36.002Z,3.03
2022-08-19T22:23:05.876Z,4.45
2022-08-19T22:25:39.498Z,4.03
2022-08-19T22:28:11.012Z,3.17
2022-08-19T22:30:44.355Z,3.92
2022-08-19T22:33:14.138Z,3.45
2022-08-19T22:35:41.955Z,3.80
2022-08-19T22:38:10.591Z,4.25
2022-08-19T22:40:40.119Z,2.65
2022-08-19T22:43:15.017Z,5.57
2022-08-19T22:46:28.430Z,3.40
2022-08-19T22:49:01.248Z,3.38
2022-08-19T22:51:47.154Z,5.90
2022-08-19T22:54:26.457Z,3.72
2022-08-19T22:56:53.332Z,3.83
2022-08-19T22:59:19.968Z,3.28
2022-08-19T23:01:46.530Z,4.72
2022-08-19T23:04:13.158Z,4.68
2022-08-19T23:06:42.169Z,2.90
2022-08-19T23:09:10.317Z,3.28
2022-08-19T23:11:41.588Z,3.75
2022-08-19T23:14:09.526Z,4.63
2022-08-19T23:16:36.131Z,2.45
2022-08-19T23:19:03.456Z,3.42
2022-08-19T23:21:30.446Z,3.60
2022-08-19T23:23:56.992Z,3.90
2022-08-19T23:26:23.606Z,2.72
2022-08-19T23:29:08.902Z,2.38
2022-08-19T23:31:36.288Z,4.85
2022-08-19T23:34:03.427Z,3.25
2022-08-19T23:36:30.208Z,4.18
2022-08-19T23:38:57.857Z,1.90
2022-08-19T23:41:27.072Z,5.57
2022-08-19T23:43:54.903Z,3.38
2022-08-19T23:46:27.612Z,2.95
2022-08-19T23:48:56.078Z,3.63
2022-08-19T23:51:23.048Z,6.05
2022-08-19T23:53:49.606Z,2.22
2022-08-19T23:56:16.275Z,3.38
2022-08-19T23:58:42.831Z,2.88
